createdAt,value
2023-07-29T00:00:39.804Z,21.66351318
2023-07-29T00:01:41.515Z,21.67358398
2023-07-29T00:02:42.492Z,21.68365479
2023-07-29T00:03:43.470Z,21.70379639
2023-07-29T00:04:44.403Z,21.71386719
2023-07-29T00:05:45.837Z,21.73400879
2023-07-29T00:06:46.995Z,21.74407959
2023-07-29T00:07:48.159Z,21.73400879
2023-07-29T00:08:49.207Z,21.73400879
2023-07-29T00:09:50.273Z,21.74407959
2023-07-29T00:10:51.291Z,21.77429199
2023-07-29T00:11:52.299Z,21.74407959
2023-07-29T00:12:53.248Z,21.74407959
2023-07-29T00:13:55.000Z,21.75415039
2023-07-29T00:14:56.085Z,21.75415039
2023-07-29T00:15:57.808Z,21.74407959
2023-07-29T00:16:58.939Z,21.73400879
2023-07-29T00:18:30.493Z,21.73400879
2023-07-29T00:19:31.597Z,21.73400879
2023-07-29T00:20:32.598Z,21.74407959
2023-07-29T00:21:33.697Z,21.74407959
2023-07-29T00:22:35.323Z,21.73400879
2023-07-29T00:23:36.242Z,21.71386719
2023-07-29T00:24:37.309Z,21.70379639
2023-07-29T00:25:38.367Z,21.73400879
2023-07-29T00:26:40.367Z,21.71386719
2023-07-29T00:27:41.369Z,21.71386719
2023-07-29T00:28:42.407Z,21.70379639
2023-07-29T00:29:43.255Z,21.70379639
2023-07-29T00:30:44.984Z,21.68365479
2023-07-29T00:31:46.030Z,21.68365479
2023-07-29T00:32:48.137Z,21.68365479
2023-07-29T00:33:49.061Z,21.66351318
2023-07-29T00:34:49.935Z,21.63330078
2023-07-29T00:35:51.803Z,21.59301758
2023-07-29T00:36:53.011Z,21.59301758
2023-07-29T00:37:54.061Z,21.55273438
2023-07-29T00:38:55.074Z,21.53259277
2023-07-29T00:39:56.071Z,21.53259277
2023-07-29T00:40:57.038Z,21.53259277
2023-07-29T00:41:57.942Z,21.53259277
2023-07-29T00:42:59.427Z,21.58294678
2023-07-29T00:44:30.996Z,21.59301758
2023-07-29T00:45:31.986Z,21.59301758
2023-07-29T00:46:34.334Z,21.58294678
2023-07-29T00:47:34.795Z,21.59301758
2023-07-29T00:48:35.973Z,21.58294678
2023-07-29T00:49:36.918Z,21.58294678
2023-07-29T00:50:38.046Z,21.56280518
2023-07-29T00:51:39.101Z,21.55273438
2023-07-29T00:52:40.104Z,21.55273438
2023-07-29T00:53:41.804Z,21.53259277
2023-07-29T00:54:42.816Z,21.53259277
2023-07-29T00:55:44.116Z,21.53259277
2023-07-29T00:56:45.928Z,21.55273438
2023-07-29T00:57:47.044Z,21.56280518
2023-07-29T00:58:48.070Z,21.56280518
2023-07-29T00:59:49.009Z,21.55273438
2023-07-29T01:00:50.893Z,21.53259277
2023-07-29T01:01:52.931Z,21.53259277
2023-07-29T01:02:54.067Z,21.51245117
2023-07-29T01:03:55.199Z,21.51245117
2023-07-29T01:04:55.945Z,21.51245117
2023-07-29T01:05:56.922Z,21.52252197
2023-07-29T01:06:59.423Z,21.53259277
2023-07-29T01:08:31.010Z,21.53259277
2023-07-29T01:09:32.060Z,21.53259277
2023-07-29T01:10:33.083Z,21.49230957
2023-07-29T01:11:34.095Z,21.48223877
2023-07-29T01:12:35.055Z,21.46209717
2023-07-29T01:13:36.228Z,21.42181396
2023-07-29T01:14:37.413Z,21.36138916
2023-07-29T01:15:38.592Z,21.27075195
2023-07-29T01:16:40.450Z,21.24053955
2023-07-29T01:17:41.414Z,21.22039795
2023-07-29T01:18:42.335Z,21.22039795
2023-07-29T01:19:43.429Z,21.21032715
2023-07-29T01:20:44.503Z,21.19018555
2023-07-29T01:21:45.540Z,21.18011475
2023-07-29T01:22:46.455Z,21.15997314
2023-07-29T01:23:47.391Z,21.15997314
2023-07-29T01:24:48.473Z,21.19018555
2023-07-29T01:25:49.493Z,21.21032715
2023-07-29T01:26:51.413Z,21.24053955
2023-07-29T01:27:52.556Z,21.26068115
2023-07-29T01:28:53.419Z,21.27075195
2023-07-29T01:29:55.403Z,21.28082275
2023-07-29T01:30:56.965Z,21.28082275
2023-07-29T01:31:58.089Z,21.28082275
2023-07-29T01:33:30.146Z,21.30096436
2023-07-29T01:34:31.127Z,21.31103516
2023-07-29T01:35:32.030Z,21.30096436
2023-07-29T01:36:34.007Z,21.33117676
2023-07-29T01:37:34.916Z,21.34124756
2023-07-29T01:38:35.991Z,21.34124756
2023-07-29T01:39:37.025Z,21.34124756
2023-07-29T01:40:38.121Z,21.34124756
2023-07-29T01:41:39.123Z,21.36138916
2023-07-29T01:42:40.058Z,21.37145996
2023-07-29T01:43:41.069Z,21.37145996
2023-07-29T01:44:42.096Z,21.42181396
2023-07-29T01:45:43.305Z,21.43188477
2023-07-29T01:46:45.393Z,21.40167236
2023-07-29T01:47:46.437Z,21.38153076
2023-07-29T01:48:47.403Z,21.38153076
2023-07-29T01:49:48.395Z,21.36138916
2023-07-29T01:50:49.460Z,21.37145996
2023-07-29T01:51:50.559Z,21.36138916
2023-07-29T01:52:51.743Z,21.36138916
2023-07-29T01:53:52.640Z,21.37145996
2023-07-29T01:54:53.626Z,21.38153076
2023-07-29T01:55:54.676Z,21.38153076
2023-07-29T01:56:56.375Z,21.40167236
2023-07-29T01:57:57.445Z,21.40167236
2023-07-29T01:58:58.850Z,21.37145996
2023-07-29T02:00:30.838Z,21.36138916
2023-07-29T02:01:32.558Z,21.34124756
2023-07-29T02:02:33.410Z,21.33117676
2023-07-29T02:03:34.527Z,21.24053955
2023-07-29T02:04:35.563Z,21.22039795
2023-07-29T02:05:36.487Z,21.19018555
2023-07-29T02:06:38.674Z,21.12976074
2023-07-29T02:07:39.329Z,21.07940674
2023-07-29T02:08:40.426Z,21.05926514
2023-07-29T02:09:41.465Z,20.96862793
2023-07-29T02:10:42.491Z,20.93841553
2023-07-29T02:11:43.409Z,20.90820313
2023-07-29T02:12:44.472Z,20.90820313
2023-07-29T02:13:45.492Z,20.89813232
2023-07-29T02:14:46.602Z,20.86791992
2023-07-29T02:15:47.694Z,20.86791992
2023-07-29T02:16:49.443Z,20.87799072
2023-07-29T02:17:50.309Z,20.86791992
2023-07-29T02:18:53.630Z,20.84777832
2023-07-29T02:19:52.240Z,20.80749512
2023-07-29T02:20:53.327Z,20.81756592
2023-07-29T02:21:54.426Z,20.80749512
2023-07-29T02:22:55.460Z,20.78735352
2023-07-29T02:23:56.415Z,20.81756592
2023-07-29T02:24:57.376Z,20.82763672
2023-07-29T02:25:58.843Z,20.89813232
2023-07-29T02:27:31.423Z,20.90820313
2023-07-29T02:28:32.643Z,20.96862793
2023-07-29T02:29:33.619Z,21.00891113
2023-07-29T02:30:34.818Z,21.04919434
2023-07-29T02:31:36.398Z,21.07940674
2023-07-29T02:32:37.451Z,21.11968994
2023-07-29T02:33:38.335Z,21.12976074
2023-07-29T02:34:39.338Z,21.14990234
2023-07-29T02:35:40.375Z,21.19018555
2023-07-29T02:36:41.865Z,21.21032715
2023-07-29T02:37:42.863Z,21.19018555
2023-07-29T02:38:44.350Z,21.21032715
2023-07-29T02:39:45.430Z,21.21032715
2023-07-29T02:40:46.523Z,21.21032715
2023-07-29T02:41:47.534Z,21.22039795
2023-07-29T02:42:48.549Z,21.21032715
2023-07-29T02:43:49.474Z,21.21032715
2023-07-29T02:44:50.492Z,21.18011475
2023-07-29T02:45:51.605Z,21.14990234
2023-07-29T02:46:53.444Z,21.12976074
2023-07-29T02:47:54.664Z,21.11968994
2023-07-29T02:48:55.481Z,21.11968994
2023-07-29T02:49:56.552Z,21.11968994
2023-07-29T02:50:57.484Z,21.14990234
2023-07-29T02:52:29.263Z,21.15997314
2023-07-29T02:53:30.326Z,21.18011475
2023-07-29T02:54:31.432Z,21.15997314
2023-07-29T02:55:32.392Z,21.18011475
2023-07-29T02:56:33.316Z,21.15997314
2023-07-29T02:57:34.868Z,21.15997314
2023-07-29T02:58:36.088Z,21.21032715
2023-07-29T02:59:37.238Z,21.22039795
2023-07-29T03:00:38.864Z,21.26068115
2023-07-29T03:01:40.417Z,21.27075195
2023-07-29T03:02:41.469Z,21.28082275
2023-07-29T03:03:42.564Z,21.28082275
2023-07-29T03:04:43.321Z,21.30096436
2023-07-29T03:05:44.367Z,21.28082275
2023-07-29T03:06:45.836Z,21.31103516
2023-07-29T03:07:47.372Z,21.31103516
2023-07-29T03:08:48.302Z,21.33117676
2023-07-29T03:09:49.229Z,21.31103516
2023-07-29T03:10:50.286Z,21.33117676
2023-07-29T03:11:51.350Z,21.33117676
2023-07-29T03:12:52.376Z,21.33117676
2023-07-29T03:13:53.419Z,21.33117676
2023-07-29T03:14:54.371Z,21.34124756
2023-07-29T03:15:55.336Z,21.36138916
2023-07-29T03:16:56.963Z,21.36138916
2023-07-29T03:17:58.436Z,21.38153076
2023-07-29T03:19:29.838Z,21.42181396
2023-07-29T03:20:30.710Z,21.40167236
2023-07-29T03:21:31.705Z,21.40167236
2023-07-29T03:22:32.775Z,21.34124756
2023-07-29T03:23:33.839Z,21.33117676
2023-07-29T03:24:34.827Z,21.30096436
2023-07-29T03:25:35.774Z,21.30096436
2023-07-29T03:26:37.592Z,21.31103516
2023-07-29T03:27:38.921Z,21.33117676
2023-07-29T03:28:40.002Z,21.34124756
2023-07-29T03:29:42.043Z,21.34124756
2023-07-29T03:30:43.008Z,21.36138916
2023-07-29T03:31:44.942Z,21.37145996
2023-07-29T03:32:45.934Z,21.36138916
2023-07-29T03:33:46.940Z,21.36138916
2023-07-29T03:34:47.913Z,21.36138916
2023-07-29T03:35:49.434Z,21.36138916
2023-07-29T03:36:50.385Z,21.34124756
2023-07-29T03:37:51.818Z,21.34124756
2023-07-29T03:38:52.733Z,21.34124756
2023-07-29T03:39:53.770Z,21.34124756
2023-07-29T03:40:54.860Z,21.34124756
2023-07-29T03:41:55.923Z,21.34124756
2023-07-29T03:42:56.864Z,21.34124756
2023-07-29T03:43:58.239Z,21.34124756
2023-07-29T03:45:29.725Z,21.33117676
2023-07-29T03:46:30.733Z,21.33117676
2023-07-29T03:47:32.444Z,21.31103516
2023-07-29T03:48:33.491Z,21.30096436
2023-07-29T03:49:34.397Z,21.27075195
2023-07-29T03:50:35.342Z,21.27075195
2023-07-29T03:51:36.328Z,21.27075195
2023-07-29T03:52:37.455Z,21.26068115
2023-07-29T03:53:38.610Z,21.24053955
2023-07-29T03:54:39.612Z,21.27075195
2023-07-29T03:55:40.597Z,21.27075195
2023-07-29T03:56:41.501Z,21.28082275
2023-07-29T03:57:43.582Z,21.30096436
2023-07-29T03:58:44.526Z,21.31103516
2023-07-29T03:59:45.623Z,21.28082275
2023-07-29T04:00:47.447Z,21.30096436
2023-07-29T04:01:48.944Z,21.27075195
2023-07-29T04:02:49.953Z,21.26068115
2023-07-29T04:03:50.962Z,21.28082275
2023-07-29T04:04:52.053Z,21.24053955
2023-07-29T04:05:53.134Z,21.24053955
2023-07-29T04:06:54.020Z,21.24053955
2023-07-29T04:07:55.839Z,21.24053955
2023-07-29T04:08:56.865Z,21.22039795
2023-07-29T04:10:28.648Z,21.24053955
2023-07-29T04:11:29.667Z,21.24053955
2023-07-29T04:12:30.756Z,21.26068115
2023-07-29T04:13:31.712Z,21.21032715
2023-07-29T04:14:32.633Z,21.19018555
2023-07-29T04:15:34.483Z,21.19018555
2023-07-29T04:16:35.951Z,21.21032715
2023-07-29T04:17:37.508Z,21.22039795
2023-07-29T04:18:38.676Z,21.24053955
2023-07-29T04:19:39.699Z,21.24053955
2023-07-29T04:20:40.634Z,21.24053955
2023-07-29T04:21:41.806Z,21.22039795
2023-07-29T04:22:42.854Z,21.24053955
2023-07-29T04:23:44.247Z,21.26068115
2023-07-29T04:24:45.249Z,21.26068115
2023-07-29T04:25:46.192Z,21.26068115
2023-07-29T04:26:47.212Z,21.22039795
2023-07-29T04:27:48.932Z,21.24053955
2023-07-29T04:28:49.959Z,21.26068115
2023-07-29T04:29:51.137Z,21.24053955
2023-07-29T04:30:52.946Z,21.24053955
2023-07-29T04:31:53.992Z,21.22039795
2023-07-29T04:32:55.008Z,21.22039795
2023-07-29T04:33:56.077Z,21.22039795
2023-07-29T04:34:57.616Z,21.18011475
2023-07-29T04:36:29.174Z,21.18011475
2023-07-29T04:37:30.921Z,21.19018555
2023-07-29T04:38:31.927Z,21.18011475
2023-07-29T04:39:32.966Z,21.15997314
2023-07-29T04:40:34.025Z,21.18011475
2023-07-29T04:41:36.003Z,21.15997314
2023-07-29T04:42:37.058Z,21.10961914
2023-07-29T04:43:38.159Z,21.07940674
2023-07-29T04:44:39.102Z,21.07940674
2023-07-29T04:45:40.252Z,21.04919434
2023-07-29T04:46:41.289Z,20.99884033
2023-07-29T04:47:42.988Z,21.04919434
2023-07-29T04:48:44.264Z,21.07940674
2023-07-29T04:49:45.225Z,21.10961914
2023-07-29T04:50:46.218Z,21.11968994
2023-07-29T04:51:47.241Z,21.12976074
2023-07-29T04:52:48.289Z,21.12976074
2023-07-29T04:53:49.339Z,21.15997314
2023-07-29T04:54:50.353Z,21.14990234
2023-07-29T04:55:51.271Z,21.15997314
2023-07-29T04:56:52.265Z,21.15997314
2023-07-29T04:57:53.941Z,21.15997314
2023-07-29T04:58:55.051Z,21.15997314
2023-07-29T04:59:56.104Z,21.18011475
2023-07-29T05:00:58.444Z,21.21032715
2023-07-29T05:02:29.913Z,21.22039795
2023-07-29T05:03:31.037Z,21.19018555
2023-07-29T05:04:32.204Z,21.18011475
2023-07-29T05:05:33.265Z,21.15997314
2023-07-29T05:06:34.598Z,21.18011475
2023-07-29T05:07:35.495Z,21.15997314
2023-07-29T05:08:37.509Z,21.18011475
2023-07-29T05:09:38.624Z,21.21032715
2023-07-29T05:10:39.701Z,21.22039795
2023-07-29T05:11:40.724Z,21.24053955
2023-07-29T05:12:41.652Z,21.24053955
2023-07-29T05:13:42.670Z,21.24053955
2023-07-29T05:14:43.947Z,21.24053955
2023-07-29T05:15:45.066Z,21.22039795
2023-07-29T05:16:46.102Z,21.24053955
2023-07-29T05:17:47.216Z,21.26068115
2023-07-29T05:18:48.974Z,21.24053955
2023-07-29T05:19:49.958Z,21.22039795
2023-07-29T05:20:50.956Z,21.22039795
2023-07-29T05:21:52.067Z,21.24053955
2023-07-29T05:22:53.147Z,21.27075195
2023-07-29T05:23:54.272Z,21.27075195
2023-07-29T05:24:55.280Z,21.26068115
2023-07-29T05:25:56.307Z,21.24053955
2023-07-29T05:27:28.153Z,21.22039795
2023-07-29T05:28:30.155Z,21.24053955
2023-07-29T05:29:31.272Z,21.24053955
2023-07-29T05:30:32.250Z,21.27075195
2023-07-29T05:31:33.911Z,21.27075195
2023-07-29T05:32:35.016Z,21.27075195
2023-07-29T05:33:36.126Z,21.27075195
2023-07-29T05:34:37.222Z,21.24053955
2023-07-29T05:35:38.513Z,21.26068115
2023-07-29T05:36:40.459Z,21.28082275
2023-07-29T05:37:41.446Z,21.28082275
2023-07-29T05:38:43.389Z,21.28082275
2023-07-29T05:39:44.597Z,21.27075195
2023-07-29T05:40:45.669Z,21.27075195
2023-07-29T05:41:46.776Z,21.26068115
2023-07-29T05:42:47.768Z,21.27075195
2023-07-29T05:43:48.764Z,21.28082275
2023-07-29T05:44:49.737Z,21.27075195
2023-07-29T05:45:50.869Z,21.30096436
2023-07-29T05:46:52.107Z,21.30096436
2023-07-29T05:47:53.193Z,21.30096436
2023-07-29T05:48:54.892Z,21.30096436
2023-07-29T05:49:55.922Z,21.30096436
2023-07-29T05:51:27.781Z,21.30096436
2023-07-29T05:52:28.934Z,21.28082275
2023-07-29T05:53:30.039Z,21.31103516
2023-07-29T05:54:31.115Z,21.33117676
2023-07-29T05:55:32.130Z,21.34124756
2023-07-29T05:56:33.172Z,21.37145996
2023-07-29T05:57:35.025Z,21.37145996
2023-07-29T05:58:36.230Z,21.40167236
2023-07-29T05:59:37.354Z,21.43188477
2023-07-29T06:00:38.511Z,21.45202637
2023-07-29T06:01:39.494Z,21.45202637
2023-07-29T06:02:40.551Z,21.46209717
2023-07-29T06:03:41.706Z,21.48223877
2023-07-29T06:04:42.768Z,21.48223877
2023-07-29T06:05:44.190Z,21.49230957
2023-07-29T06:06:45.186Z,21.52252197
2023-07-29T06:07:46.280Z,21.52252197
2023-07-29T06:08:48.028Z,21.52252197
2023-07-29T06:09:49.066Z,21.51245117
2023-07-29T06:10:50.384Z,21.53259277
2023-07-29T06:11:52.675Z,21.56280518
2023-07-29T06:12:52.351Z,21.56280518
2023-07-29T06:13:53.300Z,21.58294678
2023-07-29T06:14:54.466Z,21.58294678
2023-07-29T06:15:55.593Z,21.63330078
2023-07-29T06:17:27.496Z,21.63330078
2023-07-29T06:18:28.962Z,21.64337158
2023-07-29T06:19:29.908Z,21.64337158
2023-07-29T06:20:30.955Z,21.67358398
2023-07-29T06:21:32.045Z,21.70379639
2023-07-29T06:22:33.114Z,21.71386719
2023-07-29T06:23:34.185Z,21.73400879
2023-07-29T06:24:35.306Z,21.68365479
2023-07-29T06:25:36.239Z,21.68365479
2023-07-29T06:26:37.591Z,21.70379639
2023-07-29T06:27:38.666Z,21.67358398
2023-07-29T06:28:40.597Z,21.67358398
2023-07-29T06:29:41.692Z,21.66351318
2023-07-29T06:30:42.815Z,21.67358398
2023-07-29T06:31:44.474Z,21.68365479
2023-07-29T06:32:45.522Z,21.68365479
2023-07-29T06:33:46.567Z,21.71386719
2023-07-29T06:34:47.697Z,21.71386719
2023-07-29T06:35:48.767Z,21.71386719
2023-07-29T06:36:49.905Z,21.70379639
2023-07-29T06:37:50.800Z,21.70379639
2023-07-29T06:38:52.582Z,21.70379639
2023-07-29T06:39:53.625Z,21.70379639
2023-07-29T06:40:55.467Z,21.73400879
2023-07-29T06:42:27.160Z,21.73400879
2023-07-29T06:43:28.234Z,21.73400879
2023-07-29T06:44:29.191Z,21.71386719
2023-07-29T06:45:30.102Z,21.71386719
2023-07-29T06:46:31.191Z,21.71386719
2023-07-29T06:47:32.199Z,21.73400879
2023-07-29T06:48:33.947Z,21.73400879
2023-07-29T06:49:34.885Z,21.73400879
2023-07-29T06:50:35.880Z,21.74407959
2023-07-29T06:51:36.768Z,21.74407959
2023-07-29T06:52:37.865Z,21.77429199
2023-07-29T06:53:38.792Z,21.75415039
2023-07-29T06:54:39.884Z,21.75415039
2023-07-29T06:55:40.819Z,21.74407959
2023-07-29T06:56:41.812Z,21.74407959
2023-07-29T06:57:42.821Z,21.74407959
2023-07-29T06:58:44.916Z,21.75415039
2023-07-29T06:59:45.918Z,21.77429199
2023-07-29T07:00:46.905Z,21.79443359
2023-07-29T07:01:48.444Z,21.824646
2023-07-29T07:02:49.441Z,21.8347168
2023-07-29T07:03:50.363Z,21.8548584
2023-07-29T07:04:51.346Z,21.8649292
2023-07-29T07:05:52.295Z,21.8850708
2023-07-29T07:06:53.305Z,21.9052124
2023-07-29T07:07:54.330Z,21.925354
2023-07-29T07:08:55.901Z,21.95556641
2023-07-29T07:10:27.368Z,21.97570801
2023-07-29T07:11:28.316Z,21.98577881
2023-07-29T07:12:29.297Z,22.01599121
2023-07-29T07:13:30.348Z,22.05627441
2023-07-29T07:14:31.269Z,22.05627441
2023-07-29T07:15:32.189Z,22.08648682
2023-07-29T07:16:33.397Z,22.10662842
2023-07-29T07:17:34.360Z,22.11669922
2023-07-29T07:18:35.317Z,22.14691162
2023-07-29T07:19:36.915Z,22.16705322
2023-07-29T07:20:38.023Z,22.19726563
2023-07-29T07:21:38.915Z,22.20733643
2023-07-29T07:22:39.967Z,22.22747803
2023-07-29T07:23:40.960Z,22.23754883
2023-07-29T07:24:42.076Z,22.25769043
2023-07-29T07:25:43.137Z,22.28790283
2023-07-29T07:26:44.252Z,22.28790283
2023-07-29T07:27:45.994Z,22.29797363
2023-07-29T07:28:47.264Z,22.34832764
2023-07-29T07:29:48.178Z,22.37854004
2023-07-29T07:30:49.124Z,22.40875244
2023-07-29T07:31:51.009Z,22.43896484
2023-07-29T07:32:52.085Z,22.47924805
2023-07-29T07:33:53.054Z,22.50946045
2023-07-29T07:34:55.418Z,22.56988525
2023-07-29T07:36:27.003Z,22.55981445
2023-07-29T07:37:28.138Z,22.56988525
2023-07-29T07:38:29.055Z,22.59002686
2023-07-29T07:39:30.988Z,22.59002686
2023-07-29T07:40:31.959Z,22.61016846
2023-07-29T07:41:33.076Z,22.63031006
2023-07-29T07:42:34.117Z,22.64038086
2023-07-29T07:43:35.112Z,22.69073486
2023-07-29T07:44:36.163Z,22.69073486
2023-07-29T07:45:37.244Z,22.72094727
2023-07-29T07:46:38.479Z,22.74108887
2023-07-29T07:47:39.351Z,22.76123047
2023-07-29T07:48:40.490Z,22.79144287
2023-07-29T07:49:42.544Z,22.81158447
2023-07-29T07:50:43.560Z,22.84179688
2023-07-29T07:51:44.556Z,22.88208008
2023-07-29T07:52:45.564Z,22.89215088
2023-07-29T07:53:46.555Z,22.91229248
2023-07-29T07:54:47.718Z,22.94250488
2023-07-29T07:55:48.660Z,22.97271729
2023-07-29T07:56:49.624Z,23.00292969
2023-07-29T07:57:50.792Z,23.01300049
2023-07-29T07:58:51.745Z,23.04321289
2023-07-29T07:59:53.514Z,23.07342529
2023-07-29T08:00:54.991Z,23.1539917
2023-07-29T08:02:27.039Z,23.1942749
2023-07-29T08:03:28.074Z,23.23455811
2023-07-29T08:04:28.889Z,23.25469971
2023-07-29T08:05:30.116Z,23.26477051
2023-07-29T08:06:31.047Z,23.29498291
2023-07-29T08:07:32.969Z,23.31512451
2023-07-29T08:08:33.959Z,23.31512451
2023-07-29T08:09:35.420Z,23.34533691
2023-07-29T08:10:36.327Z,23.36547852
2023-07-29T08:11:37.204Z,23.36547852
2023-07-29T08:12:38.257Z,23.37554932
2023-07-29T08:13:39.366Z,23.40576172
2023-07-29T08:14:40.309Z,23.40576172
2023-07-29T08:15:41.225Z,23.41583252
2023-07-29T08:16:42.233Z,23.44604492
2023-07-29T08:17:44.057Z,23.49639893
2023-07-29T08:18:45.092Z,23.49639893
2023-07-29T08:19:46.861Z,23.51654053
2023-07-29T08:20:47.784Z,23.51654053
2023-07-29T08:21:48.767Z,23.52661133
2023-07-29T08:22:49.800Z,23.52661133
2023-07-29T08:23:50.660Z,23.52661133
2023-07-29T08:24:51.580Z,23.51654053
2023-07-29T08:25:53.464Z,23.53668213
2023-07-29T08:26:54.838Z,23.56689453
2023-07-29T08:28:26.197Z,23.58703613
2023-07-29T08:29:27.914Z,23.58703613
2023-07-29T08:30:28.887Z,23.58703613
2023-07-29T08:31:30.584Z,23.61724854
2023-07-29T08:32:31.523Z,23.62731934
2023-07-29T08:33:32.445Z,23.62731934
2023-07-29T08:34:33.540Z,23.66760254
2023-07-29T08:35:34.512Z,23.67767334
2023-07-29T08:36:35.833Z,23.68774414
2023-07-29T08:37:37.422Z,23.66760254
2023-07-29T08:38:38.386Z,23.63739014
2023-07-29T08:39:39.956Z,23.66760254
2023-07-29T08:40:40.854Z,23.66760254
2023-07-29T08:41:41.809Z,23.66760254
2023-07-29T08:42:42.651Z,23.67767334
2023-07-29T08:43:43.812Z,23.71795654
2023-07-29T08:44:44.745Z,23.74816895
2023-07-29T08:45:45.687Z,23.77838135
2023-07-29T08:46:46.662Z,23.80859375
2023-07-29T08:47:47.537Z,23.86901855
2023-07-29T08:48:48.557Z,23.92944336
2023-07-29T08:49:50.470Z,23.98986816
2023-07-29T08:50:51.363Z,24.04022217
2023-07-29T08:51:52.332Z,24.09057617
2023-07-29T08:52:53.194Z,24.12078857
2023-07-29T08:53:54.539Z,24.19128418
2023-07-29T08:55:25.937Z,24.23156738
2023-07-29T08:56:26.848Z,24.26177979
2023-07-29T08:57:27.790Z,24.29199219
2023-07-29T08:58:28.665Z,24.31213379
2023-07-29T08:59:30.417Z,24.33227539
2023-07-29T09:00:31.341Z,24.33227539
2023-07-29T09:01:32.917Z,24.33227539
2023-07-29T09:02:33.988Z,24.34234619
2023-07-29T09:03:35.455Z,24.31213379
2023-07-29T09:04:36.369Z,24.33227539
2023-07-29T09:05:37.269Z,24.31213379
2023-07-29T09:06:38.559Z,24.30206299
2023-07-29T09:07:39.105Z,24.30206299
2023-07-29T09:08:39.965Z,24.27185059
2023-07-29T09:09:41.377Z,24.30206299
2023-07-29T09:10:42.932Z,24.29199219
2023-07-29T09:11:44.060Z,24.31213379
2023-07-29T09:12:45.017Z,24.34234619
2023-07-29T09:13:45.877Z,24.37255859
2023-07-29T09:14:46.763Z,24.4430542
2023-07-29T09:15:47.623Z,24.453125
2023-07-29T09:16:48.585Z,24.4934082
2023-07-29T09:17:49.433Z,24.5135498
2023-07-29T09:18:50.284Z,24.53369141
2023-07-29T09:19:51.929Z,24.56390381
2023-07-29T09:20:52.796Z,24.60418701
2023-07-29T09:21:54.112Z,24.66461182
2023-07-29T09:23:25.422Z,24.66461182
2023-07-29T09:24:26.239Z,24.67468262
2023-07-29T09:25:27.275Z,24.67468262
2023-07-29T09:26:28.312Z,24.70489502
2023-07-29T09:27:29.219Z,24.70489502
2023-07-29T09:28:30.148Z,24.71496582
2023-07-29T09:29:30.997Z,24.73510742
2023-07-29T09:30:33.026Z,24.71496582
2023-07-29T09:31:34.082Z,24.73510742
2023-07-29T09:32:36.093Z,24.76531982
2023-07-29T09:33:36.957Z,24.74517822
2023-07-29T09:34:37.876Z,24.74517822
2023-07-29T09:35:38.751Z,24.78546143
2023-07-29T09:36:40.116Z,24.81567383
2023-07-29T09:37:41.554Z,24.82574463
2023-07-29T09:38:42.622Z,24.82574463
2023-07-29T09:39:43.824Z,24.83581543
2023-07-29T09:40:45.416Z,24.85595703
2023-07-29T09:41:48.436Z,24.86602783
2023-07-29T09:42:47.429Z,24.86602783
2023-07-29T09:43:48.507Z,24.85595703
2023-07-29T09:44:49.489Z,24.83581543
2023-07-29T09:45:50.516Z,24.79553223
2023-07-29T09:46:51.484Z,24.76531982
2023-07-29T09:47:52.368Z,24.74517822
2023-07-29T09:48:53.314Z,24.70489502
2023-07-29T09:50:25.528Z,24.67468262
2023-07-29T09:51:26.565Z,24.64447021
2023-07-29T09:52:27.481Z,24.63439941
2023-07-29T09:53:28.384Z,24.59411621
2023-07-29T09:54:29.373Z,24.56390381
2023-07-29T09:55:30.408Z,24.53369141
2023-07-29T09:56:31.421Z,24.52362061
2023-07-29T09:57:32.527Z,24.52362061
2023-07-29T09:58:33.448Z,24.53369141
2023-07-29T09:59:34.423Z,24.53369141
2023-07-29T10:00:36.032Z,24.55383301
2023-07-29T10:01:38.662Z,24.55383301
2023-07-29T10:02:39.247Z,24.59411621
2023-07-29T10:03:41.124Z,24.60418701
2023-07-29T10:04:41.953Z,24.63439941
2023-07-29T10:05:42.914Z,24.68475342
2023-07-29T10:06:44.321Z,24.71496582
2023-07-29T10:07:45.212Z,24.78546143
2023-07-29T10:08:46.210Z,24.83581543
2023-07-29T10:09:47.232Z,24.91638184
2023-07-29T10:10:48.928Z,24.96673584
2023-07-29T10:11:49.824Z,24.97680664
2023-07-29T10:12:50.755Z,25.03723145
2023-07-29T10:14:06.685Z,25.03723145
2023-07-29T10:14:52.802Z,24.97680664
2023-07-29T10:16:24.443Z,24.96673584
2023-07-29T10:17:25.331Z,24.93652344
2023-07-29T10:18:26.325Z,24.93652344
2023-07-29T10:19:27.311Z,24.92645264
2023-07-29T10:20:28.983Z,24.89624023
2023-07-29T10:21:29.986Z,24.89624023
2023-07-29T10:22:30.887Z,24.91638184
2023-07-29T10:23:31.785Z,24.91638184
2023-07-29T10:24:32.745Z,24.92645264
2023-07-29T10:25:33.747Z,24.96673584
2023-07-29T10:26:35.059Z,24.97680664
2023-07-29T10:27:35.803Z,24.98687744
2023-07-29T10:28:36.819Z,24.98687744
2023-07-29T10:29:38.536Z,24.98687744
2023-07-29T10:30:39.530Z,24.98687744
2023-07-29T10:31:41.561Z,24.96673584
2023-07-29T10:32:42.654Z,24.97680664
2023-07-29T10:33:44.627Z,24.98687744
2023-07-29T10:34:45.434Z,25.00701904
2023-07-29T10:35:46.362Z,25.00701904
2023-07-29T10:36:47.416Z,25.03723145
2023-07-29T10:37:48.443Z,25.01708984
2023-07-29T10:38:49.482Z,25.06744385
2023-07-29T10:39:50.523Z,25.11779785
2023-07-29T10:40:51.930Z,25.18829346
2023-07-29T10:41:53.250Z,25.25878906
2023-07-29T10:43:24.829Z,25.28900146
2023-07-29T10:44:25.957Z,25.28900146
2023-07-29T10:45:27.072Z,25.28900146
2023-07-29T10:46:27.898Z,25.29907227
2023-07-29T10:47:28.865Z,25.30914307
2023-07-29T10:48:29.778Z,25.34942627
2023-07-29T10:49:30.847Z,25.40985107
2023-07-29T10:50:32.474Z,25.46020508
2023-07-29T10:51:33.480Z,25.53070068
2023-07-29T10:52:34.370Z,25.60119629
2023-07-29T10:53:35.260Z,25.67169189
2023-07-29T10:54:36.358Z,25.7421875
2023-07-29T10:55:37.303Z,25.81268311
2023-07-29T10:56:39.401Z,25.83282471
2023-07-29T10:57:40.111Z,25.85296631
2023-07-29T10:58:40.992Z,25.91339111
2023-07-29T10:59:41.925Z,25.91339111
2023-07-29T11:00:43.537Z,25.94360352
2023-07-29T11:01:44.672Z,25.93353271
2023-07-29T11:02:46.498Z,25.90332031
2023-07-29T11:03:47.406Z,25.89324951
2023-07-29T11:04:48.295Z,25.82275391
2023-07-29T11:05:49.170Z,25.82275391
2023-07-29T11:06:50.121Z,25.7925415
2023-07-29T11:07:51.094Z,25.7824707
2023-07-29T11:08:52.030Z,25.7623291
2023-07-29T11:10:23.623Z,25.7623291
2023-07-29T11:11:25.408Z,25.7623291
2023-07-29T11:12:26.391Z,25.7522583
2023-07-29T11:13:27.398Z,25.7421875